Time;durP1;ratioP1;P1;durP2;ratioP2;P2;SDS_P1;SDS_P2;PMS_P1;PMS_P2;Temp;Humidity;BMP_temperature;BMP_pressure;BME280_temperature;BME280_humidity;BME280_pressure;Samples;Min_cycle;Max_cycle;Signal;HPM_P1;HPM_P2
2023/05/02 00:00:39;;;;;;;32.50;17.10;;;;;;;;;;107642;1252;22517;-78
2023/05/02 00:03:15;;;;;;;27.90;16.10;;;;;;;;;;107609;1248;22525;-77
2023/05/02 00:05:42;;;;;;;34.10;15.00;;;;;;;;;;107640;1249;23681;-77
2023/05/02 00:08:08;;;;;;;29.90;15.30;;;;;;;;;;107579;1248;22536;-78
2023/05/02 00:10:34;;;;;;;26.50;14.00;;;;;;;;;;107660;1252;22522;-78
2023/05/02 00:13:01;;;;;;;28.00;14.90;;;;;;;;;;107573;1250;22539;-77
2023/05/02 00:15:27;;;;;;;32.00;14.90;;;;;;;;;;107617;1252;25694;-77
2023/05/02 00:17:54;;;;;;;23.90;13.60;;;;;;;;;;107600;1251;22521;-77
2023/05/02 00:20:20;;;;;;;27.50;15.70;;;;;;;;;;107604;1252;22989;-78
2023/05/02 00:22:46;;;;;;;31.80;16.80;;;;;;;;;;107633;1248;27604;-77
2023/05/02 00:25:15;;;;;;;28.30;14.60;;;;;;;;;;107649;1250;24209;-77
2023/05/02 00:27:42;;;;;;;27.60;14.30;;;;;;;;;;107616;1250;23745;-78
2023/05/02 00:30:08;;;;;;;25.00;14.10;;;;;;;;;;107593;1250;22811;-78
2023/05/02 00:32:35;;;;;;;26.50;15.20;;;;;;;;;;107759;1248;22548;-77
2023/05/02 00:35:01;;;;;;;26.20;14.20;;;;;;;;;;107637;1250;22975;-79
2023/05/02 00:37:27;;;;;;;22.80;12.80;;;;;;;;;;107612;1248;23751;-77
2023/05/02 00:39:54;;;;;;;20.80;12.20;;;;;;;;;;107651;1250;22534;-79
2023/05/02 00:42:20;;;;;;;21.30;11.20;;;;;;;;;;107626;1250;25351;-78
2023/05/02 00:44:47;;;;;;;22.30;11.20;;;;;;;;;;107621;1250;24280;-77
2023/05/02 00:47:13;;;;;;;19.90;11.80;;;;;;;;;;107666;1250;22528;-77
2023/05/02 00:49:40;;;;;;;19.80;11.60;;;;;;;;;;107644;1252;22522;-78
2023/05/02 00:52:07;;;;;;;22.60;12.10;;;;;;;;;;107608;1249;24312;-77
2023/05/02 00:54:33;;;;;;;26.00;13.10;;;;;;;;;;110952;1248;22445;-78
2023/05/02 00:56:59;;;;;;;25.30;12.10;;;;;;;;;;111005;1249;22435;-78
2023/05/02 00:59:26;;;;;;;22.00;11.50;;;;;;;;;;110969;1248;22081;-76
2023/05/02 01:01:59;;;;;;;19.50;11.20;;;;;;;;;;110954;1248;22516;-76
2023/05/02 01:04:29;;;;;;;23.40;10.60;;;;;;;;;;110922;1249;22641;-76
2023/05/02 01:07:05;;;;;;;21.20;10.70;;;;;;;;;;110979;1248;22335;-76
2023/05/02 01:09:37;;;;;;;20.40;10.40;;;;;;;;;;110971;1248;22491;-76
2023/05/02 01:12:05;;;;;;;20.30;11.10;;;;;;;;;;108833;1250;22910;-78
2023/05/02 01:14:37;;;;;;;17.00;10.40;;;;;;;;;;107623;1252;25311;-78
2023/05/02 01:17:04;;;;;;;20.20;10.80;;;;;;;;;;107624;1250;22519;-77
2023/05/02 01:19:32;;;;;;;17.80;9.90;;;;;;;;;;107550;1251;22540;-79
2023/05/02 01:21:58;;;;;;;17.30;10.90;;;;;;;;;;110936;1248;22841;-77
2023/05/02 01:24:26;;;;;;;23.10;11.20;;;;;;;;;;110935;1248;22349;-76
2023/05/02 01:27:01;;;;;;;18.60;10.30;;;;;;;;;;110935;1249;22284;-76
2023/05/02 01:29:28;;;;;;;21.70;11.30;;;;;;;;;;110927;1250;22495;-76
2023/05/02 01:31:55;;;;;;;19.80;10.90;;;;;;;;;;108985;1250;25493;-77
2023/05/02 01:34:21;;;;;;;18.50;9.30;;;;;;;;;;107645;1250;22650;-78
2023/05/02 01:36:48;;;;;;;18.30;9.40;;;;;;;;;;107641;1250;24395;-78
2023/05/02 01:39:18;;;;;;;22.80;11.30;;;;;;;;;;107608;1248;22518;-77
2023/05/02 01:41:45;;;;;;;15.30;9.70;;;;;;;;;;107596;1249;22525;-78
2023/05/02 01:44:12;;;;;;;17.90;10.20;;;;;;;;;;108757;1253;26402;-78
2023/05/02 01:46:39;;;;;;;19.20;11.40;;;;;;;;;;107586;1252;22517;-78
2023/05/02 01:49:05;;;;;;;21.80;12.00;;;;;;;;;;107636;1249;22553;-77
2023/05/02 01:51:33;;;;;;;18.50;10.40;;;;;;;;;;107649;1250;22519;-77
2023/05/02 01:54:01;;;;;;;19.20;11.00;;;;;;;;;;107647;1252;22575;-77
2023/05/02 01:56:28;;;;;;;20.00;11.80;;;;;;;;;;107595;1250;22518;-77
2023/05/02 01:58:54;;;;;;;18.10;10.10;;;;;;;;;;107480;1250;144244;-77
2023/05/02 02:01:23;;;;;;;16.20;9.30;;;;;;;;;;107615;1248;25348;-77
2023/05/02 02:03:50;;;;;;;16.40;8.80;;;;;;;;;;110937;1249;22800;-78
2023/05/02 02:06:16;;;;;;;21.10;9.60;;;;;;;;;;110993;1248;23489;-77
2023/05/02 02:08:42;;;;;;;15.80;9.40;;;;;;;;;;110350;1248;22825;-77
2023/05/02 02:11:10;;;;;;;17.60;8.50;;;;;;;;;;110875;1250;22225;-78
2023/05/02 02:13:38;;;;;;;16.60;10.70;;;;;;;;;;110950;1249;23162;-75
2023/05/02 02:16:04;;;;;;;17.30;9.20;;;;;;;;;;111005;1248;22304;-75
2023/05/02 02:18:31;;;;;;;14.40;8.80;;;;;;;;;;110956;1249;22888;-76
2023/05/02 02:20:58;;;;;;;14.20;9.00;;;;;;;;;;107974;1250;24234;-78
2023/05/02 02:23:25;;;;;;;16.40;9.30;;;;;;;;;;107619;1249;24230;-78
2023/05/02 02:25:52;;;;;;;15.50;9.40;;;;;;;;;;107609;1249;22520;-79
2023/05/02 02:28:18;;;;;;;14.40;8.60;;;;;;;;;;107607;1248;22523;-78
2023/05/02 02:30:45;;;;;;;16.30;9.40;;;;;;;;;;107611;1251;22652;-77
2023/05/02 02:33:11;;;;;;;17.40;9.70;;;;;;;;;;107615;1250;23302;-78
2023/05/02 02:35:39;;;;;;;12.80;7.60;;;;;;;;;;107640;1250;22520;-77
2023/05/02 02:38:08;;;;;;;14.70;7.80;;;;;;;;;;107620;1249;24788;-77
2023/05/02 02:40:43;;;;;;;108.10;50.10;;;;;;;;;;107645;1250;22577;-78
2023/05/02 02:43:29;;;;;;;37.40;19.20;;;;;;;;;;107586;1249;22653;-78
2023/05/02 02:45:58;;;;;;;18.30;9.60;;;;;;;;;;107645;1250;22514;-77
2023/05/02 02:48:29;;;;;;;19.60;8.70;;;;;;;;;;107633;1248;23773;-77
2023/05/02 02:51:19;;;;;;;13.00;7.60;;;;;;;;;;107600;1250;25384;-78
2023/05/02 02:54:00;;;;;;;12.60;7.80;;;;;;;;;;107574;1250;24273;-79
2023/05/02 02:56:35;;;;;;;14.40;7.90;;;;;;;;;;110492;1248;22953;-79
2023/05/02 02:59:20;;;;;;;12.00;7.60;;;;;;;;;;107566;1253;22545;-79
2023/05/02 03:01:48;;;;;;;13.80;7.40;;;;;;;;;;107561;1250;25410;-78
2023/05/02 03:04:14;;;;;;;11.10;7.20;;;;;;;;;;109400;1248;22968;-79
2023/05/02 03:06:41;;;;;;;12.90;8.40;;;;;;;;;;107917;1250;22523;-79
2023/05/02 03:09:13;;;;;;;14.00;8.50;;;;;;;;;;107552;1250;22972;-78
2023/05/02 03:11:40;;;;;;;18.50;7.50;;;;;;;;;;107583;1249;25397;-77
2023/05/02 03:14:07;;;;;;;16.80;8.80;;;;;;;;;;107594;1248;25391;-78
2023/05/02 03:16:36;;;;;;;13.90;7.20;;;;;;;;;;107628;1250;22521;-78
2023/05/02 03:19:02;;;;;;;14.30;8.20;;;;;;;;;;107570;1250;22519;-77
2023/05/02 03:21:30;;;;;;;15.70;8.20;;;;;;;;;;108910;1250;22243;-78
2023/05/02 03:23:57;;;;;;;11.70;7.30;;;;;;;;;;107918;1250;22570;-78
2023/05/02 03:26:23;;;;;;;10.90;6.40;;;;;;;;;;107569;1250;22515;-78
2023/05/02 03:28:50;;;;;;;13.80;6.50;;;;;;;;;;107609;1250;25370;-79
2023/05/02 03:31:16;;;;;;;14.00;6.60;;;;;;;;;;107556;1250;22543;-77
2023/05/02 03:33:43;;;;;;;11.80;6.80;;;;;;;;;;107585;1252;22525;-78
2023/05/02 03:36:09;;;;;;;14.90;6.90;;;;;;;;;;107562;1250;24253;-78
2023/05/02 03:38:36;;;;;;;13.50;8.40;;;;;;;;;;107743;1250;22522;-77
2023/05/02 03:41:02;;;;;;;13.90;7.20;;;;;;;;;;107560;1252;22617;-79
2023/05/02 03:43:29;;;;;;;13.10;7.40;;;;;;;;;;107569;1250;22526;-78
2023/05/02 03:45:55;;;;;;;11.80;7.50;;;;;;;;;;107586;1252;25487;-78
2023/05/02 03:48:22;;;;;;;13.50;7.50;;;;;;;;;;107565;1250;22515;-77
2023/05/02 03:50:49;;;;;;;20.30;7.60;;;;;;;;;;107548;1250;22667;-76
2023/05/02 03:53:15;;;;;;;13.10;7.70;;;;;;;;;;107570;1252;25288;-78
2023/05/02 03:55:41;;;;;;;12.90;7.40;;;;;;;;;;107570;1249;22526;-77
2023/05/02 03:58:09;;;;;;;11.80;7.30;;;;;;;;;;107561;1252;25390;-77
2023/05/02 04:00:35;;;;;;;12.40;7.30;;;;;;;;;;107553;1252;24879;-77
2023/05/02 04:03:01;;;;;;;16.20;8.10;;;;;;;;;;107564;1252;22576;-78
2023/05/02 04:05:28;;;;;;;12.10;6.50;;;;;;;;;;107534;1248;22651;-77
2023/05/02 04:07:55;;;;;;;21.90;8.60;;;;;;;;;;107523;1250;22531;-77
2023/05/02 04:10:21;;;;;;;13.40;6.90;;;;;;;;;;107584;1252;25376;-78
2023/05/02 04:12:48;;;;;;;12.90;6.70;;;;;;;;;;107582;1248;27394;-77
2023/05/02 04:15:14;;;;;;;13.60;7.70;;;;;;;;;;107567;1249;24199;-79
2023/05/02 04:17:40;;;;;;;14.00;9.00;;;;;;;;;;107663;1252;22544;-78
2023/05/02 04:20:07;;;;;;;13.50;8.30;;;;;;;;;;107520;1250;25526;-78
2023/05/02 04:22:34;;;;;;;14.60;8.10;;;;;;;;;;107590;1250;23372;-78
2023/05/02 04:25:00;;;;;;;30.70;10.60;;;;;;;;;;107581;1250;22527;-78
2023/05/02 04:27:27;;;;;;;21.30;8.10;;;;;;;;;;107566;1250;22523;-77
2023/05/02 04:29:53;;;;;;;19.40;7.40;;;;;;;;;;107576;1250;25220;-78
2023/05/02 04:32:20;;;;;;;17.40;7.30;;;;;;;;;;107561;1250;25338;-77
2023/05/02 04:34:46;;;;;;;11.90;8.10;;;;;;;;;;107574;1249;22826;-78
2023/05/02 04:37:12;;;;;;;20.30;9.40;;;;;;;;;;107591;1250;24338;-79
2023/05/02 04:39:39;;;;;;;19.30;10.30;;;;;;;;;;107561;1253;24469;-77
2023/05/02 04:42:05;;;;;;;19.00;10.70;;;;;;;;;;107531;1250;22533;-78
2023/05/02 04:44:32;;;;;;;15.20;10.00;;;;;;;;;;107575;1250;25383;-78
2023/05/02 04:46:58;;;;;;;24.10;11.30;;;;;;;;;;108781;1252;25378;-79
2023/05/02 04:49:25;;;;;;;22.90;11.50;;;;;;;;;;107623;1250;22518;-78
2023/05/02 04:51:52;;;;;;;19.80;10.90;;;;;;;;;;107735;1248;22527;-77
2023/05/02 04:54:18;;;;;;;17.90;9.70;;;;;;;;;;107553;1250;25343;-77
2023/05/02 04:56:45;;;;;;;14.70;8.60;;;;;;;;;;107566;1249;22548;-79
2023/05/02 04:59:11;;;;;;;17.30;9.30;;;;;;;;;;107593;1250;22816;-79
2023/05/02 05:01:38;;;;;;;12.80;7.30;;;;;;;;;;108246;1250;22515;-77
2023/05/02 05:04:04;;;;;;;10.50;6.00;;;;;;;;;;107561;1250;25258;-78
2023/05/02 05:06:31;;;;;;;24.90;7.70;;;;;;;;;;107620;1250;26063;-79
2023/05/02 05:08:58;;;;;;;10.40;4.90;;;;;;;;;;107585;1250;25359;-79
2023/05/02 05:11:25;;;;;;;13.60;7.20;;;;;;;;;;107542;1250;25283;-77
2023/05/02 05:13:51;;;;;;;15.00;6.80;;;;;;;;;;107915;1248;25375;-79
2023/05/02 05:16:18;;;;;;;10.70;6.00;;;;;;;;;;107773;1250;24379;-80
2023/05/02 05:18:44;;;;;;;11.50;5.20;;;;;;;;;;107706;1250;23192;-79
2023/05/02 05:21:10;;;;;;;8.20;4.90;;;;;;;;;;107687;1250;24214;-77
2023/05/02 05:23:37;;;;;;;10.90;5.90;;;;;;;;;;107552;1252;24215;-79
2023/05/02 05:26:10;;;;;;;11.70;5.10;;;;;;;;;;108451;1250;25440;-79
2023/05/02 05:28:36;;;;;;;9.40;5.40;;;;;;;;;;107649;1247;25358;-77
2023/05/02 05:31:06;;;;;;;10.10;5.80;;;;;;;;;;107545;1250;24217;-79
2023/05/02 05:33:33;;;;;;;8.10;5.40;;;;;;;;;;107564;1250;25431;-77
2023/05/02 05:36:25;;;;;;;10.90;6.10;;;;;;;;;;107941;1250;24212;-77
2023/05/02 05:38:52;;;;;;;9.90;6.10;;;;;;;;;;107540;1249;22520;-79
2023/05/02 05:41:18;;;;;;;22.30;8.50;;;;;;;;;;107543;1250;23232;-79
2023/05/02 05:43:44;;;;;;;19.80;8.20;;;;;;;;;;107537;1251;22542;-79
2023/05/02 05:46:10;;;;;;;10.80;7.90;;;;;;;;;;107545;1252;24784;-77
2023/05/02 05:48:37;;;;;;;8.00;5.60;;;;;;;;;;107628;1250;22838;-77
2023/05/02 05:51:04;;;;;;;11.00;5.70;;;;;;;;;;107543;1249;22532;-79
2023/05/02 05:53:30;;;;;;;9.40;5.50;;;;;;;;;;107532;1250;22588;-77
2023/05/02 05:55:57;;;;;;;9.50;5.90;;;;;;;;;;107550;1250;24250;-79
2023/05/02 05:58:23;;;;;;;10.60;6.10;;;;;;;;;;107545;1250;22742;-78
2023/05/02 06:00:49;;;;;;;11.30;5.70;;;;;;;;;;107510;1250;22617;-80
2023/05/02 06:03:16;;;;;;;34.10;7.50;;;;;;;;;;107689;1250;22539;-78
2023/05/02 06:05:42;;;;;;;12.00;6.20;;;;;;;;;;107710;1252;22525;-81
2023/05/02 06:08:08;;;;;;;15.30;6.40;;;;;;;;;;107544;1249;25486;-79
2023/05/02 06:10:35;;;;;;;11.50;5.70;;;;;;;;;;107557;1250;24373;-79
2023/05/02 06:13:01;;;;;;;8.20;6.10;;;;;;;;;;107730;1250;24193;-78
2023/05/02 06:15:27;;;;;;;15.90;6.70;;;;;;;;;;107754;1252;22524;-78
2023/05/02 06:17:54;;;;;;;15.90;6.30;;;;;;;;;;107709;1249;24237;-78
2023/05/02 06:20:20;;;;;;;13.80;5.60;;;;;;;;;;107762;1250;22531;-78
2023/05/02 06:22:46;;;;;;;8.80;5.10;;;;;;;;;;107730;1250;26471;-80
2023/05/02 06:25:13;;;;;;;8.00;4.80;;;;;;;;;;107765;1250;24205;-78
2023/05/02 06:27:39;;;;;;;9.30;5.60;;;;;;;;;;107621;1251;22518;-79
2023/05/02 06:30:06;;;;;;;9.80;5.50;;;;;;;;;;107548;1250;23176;-79
2023/05/02 06:32:32;;;;;;;9.90;5.00;;;;;;;;;;107533;1250;25382;-79
2023/05/02 06:34:59;;;;;;;10.20;5.10;;;;;;;;;;107519;1252;22544;-78
2023/05/02 06:37:25;;;;;;;12.10;5.40;;;;;;;;;;107556;1250;24328;-78
2023/05/02 06:39:51;;;;;;;9.50;4.90;;;;;;;;;;107554;1250;25322;-78
2023/05/02 06:42:17;;;;;;;8.20;4.60;;;;;;;;;;107482;1249;23611;-78
2023/05/02 06:44:44;;;;;;;13.90;4.50;;;;;;;;;;107518;1253;22513;-80
2023/05/02 06:47:10;;;;;;;11.20;5.60;;;;;;;;;;107518;1250;22533;-79
2023/05/02 06:49:37;;;;;;;10.30;4.60;;;;;;;;;;107551;1250;22869;-78
2023/05/02 06:52:03;;;;;;;46.60;8.30;;;;;;;;;;107556;1251;25252;-78
2023/05/02 06:54:29;;;;;;;15.70;6.40;;;;;;;;;;107553;1248;22513;-79
2023/05/02 06:56:56;;;;;;;8.20;4.40;;;;;;;;;;107594;1250;24361;-79
2023/05/02 06:59:22;;;;;;;14.20;5.30;;;;;;;;;;107538;1252;26460;-79
2023/05/02 07:01:48;;;;;;;9.20;4.50;;;;;;;;;;107493;1251;22531;-77
2023/05/02 07:04:15;;;;;;;7.90;5.00;;;;;;;;;;107506;1253;24218;-79
2023/05/02 07:06:41;;;;;;;7.30;4.10;;;;;;;;;;107526;1250;22514;-79
2023/05/02 07:09:07;;;;;;;8.20;5.20;;;;;;;;;;107506;1248;22499;-80
2023/05/02 07:11:34;;;;;;;7.60;4.70;;;;;;;;;;107524;1250;24186;-77
2023/05/02 07:14:00;;;;;;;8.90;4.50;;;;;;;;;;107531;1252;22513;-80
2023/05/02 07:16:26;;;;;;;11.20;4.40;;;;;;;;;;107497;1252;22583;-79
2023/05/02 07:18:53;;;;;;;7.70;4.60;;;;;;;;;;107558;1248;24072;-79
2023/05/02 07:21:19;;;;;;;7.90;5.00;;;;;;;;;;107516;1252;22520;-79
2023/05/02 07:23:46;;;;;;;10.70;5.90;;;;;;;;;;107568;1252;26603;-77
2023/05/02 07:26:12;;;;;;;7.30;4.50;;;;;;;;;;107576;1252;23255;-79
2023/05/02 07:28:38;;;;;;;11.20;5.80;;;;;;;;;;107475;1249;25263;-79
2023/05/02 07:31:05;;;;;;;11.90;5.50;;;;;;;;;;107498;1253;22980;-77
2023/05/02 07:33:31;;;;;;;13.00;6.60;;;;;;;;;;107552;1251;24244;-77
2023/05/02 07:35:57;;;;;;;15.60;7.00;;;;;;;;;;107558;1250;23896;-79
2023/05/02 07:38:24;;;;;;;16.80;5.90;;;;;;;;;;107567;1252;25383;-77
2023/05/02 07:40:50;;;;;;;9.90;5.50;;;;;;;;;;107511;1253;27393;-77
2023/05/02 07:43:16;;;;;;;9.40;5.10;;;;;;;;;;107599;1253;22902;-77
2023/05/02 07:45:43;;;;;;;11.30;6.30;;;;;;;;;;107658;1250;23341;-76
2023/05/02 07:48:09;;;;;;;9.60;6.30;;;;;;;;;;107568;1250;22534;-76
2023/05/02 07:50:36;;;;;;;12.10;5.90;;;;;;;;;;107587;1252;22518;-76
2023/05/02 07:53:02;;;;;;;9.70;5.50;;;;;;;;;;107666;1250;23206;-78
2023/05/02 07:55:30;;;;;;;15.50;8.10;;;;;;;;;;107696;1249;22549;-78
2023/05/02 07:57:56;;;;;;;17.40;7.80;;;;;;;;;;107761;1252;22523;-78
2023/05/02 08:00:22;;;;;;;13.80;8.10;;;;;;;;;;107741;1250;22542;-79
2023/05/02 08:02:49;;;;;;;13.50;8.40;;;;;;;;;;107779;1251;22591;-78
2023/05/02 08:05:16;;;;;;;16.90;8.50;;;;;;;;;;107796;1253;22554;-79
2023/05/02 08:07:43;;;;;;;18.30;8.90;;;;;;;;;;107791;1250;23806;-79
2023/05/02 08:10:09;;;;;;;19.70;10.30;;;;;;;;;;107616;1251;22733;-79
2023/05/02 08:12:39;;;;;;;16.00;9.70;;;;;;;;;;107590;1250;22520;-79
2023/05/02 08:15:06;;;;;;;13.90;8.60;;;;;;;;;;107588;1252;22706;-79
2023/05/02 08:17:33;;;;;;;15.10;6.70;;;;;;;;;;107615;1253;27585;-77
2023/05/02 08:20:00;;;;;;;9.80;6.90;;;;;;;;;;107709;1250;22990;-80
2023/05/02 08:22:26;;;;;;;12.20;7.30;;;;;;;;;;107635;1248;23114;-77
2023/05/02 08:24:52;;;;;;;11.20;6.80;;;;;;;;;;107819;1251;22516;-80
2023/05/02 08:27:19;;;;;;;14.40;7.20;;;;;;;;;;107679;1252;22522;-78
2023/05/02 08:29:45;;;;;;;14.10;6.20;;;;;;;;;;107626;1252;22554;-80
2023/05/02 08:32:12;;;;;;;10.90;6.50;;;;;;;;;;107683;1252;24252;-80
2023/05/02 08:34:38;;;;;;;11.00;6.20;;;;;;;;;;107679;1251;22827;-79
2023/05/02 08:37:08;;;;;;;11.90;7.60;;;;;;;;;;107666;1251;25289;-79
2023/05/02 08:39:35;;;;;;;9.20;5.50;;;;;;;;;;107795;1252;22525;-78
2023/05/02 08:42:04;;;;;;;8.20;5.40;;;;;;;;;;107644;1253;22524;-77
2023/05/02 08:44:31;;;;;;;6.90;4.60;;;;;;;;;;107685;1251;25357;-79
2023/05/02 08:46:57;;;;;;;8.50;6.00;;;;;;;;;;107811;1253;22678;-77
2023/05/02 08:49:24;;;;;;;6.10;4.00;;;;;;;;;;108105;1254;25194;-77
2023/05/02 08:51:50;;;;;;;4.90;3.20;;;;;;;;;;108019;1251;24197;-77
2023/05/02 08:54:16;;;;;;;5.80;3.70;;;;;;;;;;107808;1253;22529;-77
2023/05/02 08:56:43;;;;;;;7.80;3.30;;;;;;;;;;107663;1248;22551;-80
2023/05/02 08:59:09;;;;;;;7.70;3.00;;;;;;;;;;107780;1252;23840;-78
2023/05/02 09:01:36;;;;;;;4.20;2.80;;;;;;;;;;107770;1253;22515;-78
2023/05/02 09:04:03;;;;;;;4.50;2.90;;;;;;;;;;107676;1251;23104;-78
2023/05/02 09:06:29;;;;;;;7.70;2.70;;;;;;;;;;107690;1250;22650;-78
2023/05/02 09:08:58;;;;;;;3.30;1.90;;;;;;;;;;107693;1251;22521;-79
2023/05/02 09:11:24;;;;;;;4.00;2.60;;;;;;;;;;107742;1251;22511;-79
2023/05/02 09:13:51;;;;;;;5.10;2.80;;;;;;;;;;107740;1252;22538;-80
2023/05/02 09:16:24;;;;;;;6.60;3.20;;;;;;;;;;107676;1253;24255;-81
2023/05/02 09:18:51;;;;;;;2.70;1.80;;;;;;;;;;108208;1250;22560;-78
2023/05/02 09:21:21;;;;;;;4.00;3.00;;;;;;;;;;108097;1248;27571;-78
2023/05/02 09:23:48;;;;;;;5.20;3.10;;;;;;;;;;107935;1251;22531;-78
2023/05/02 09:26:18;;;;;;;6.10;2.70;;;;;;;;;;107775;1248;22519;-78
2023/05/02 09:28:48;;;;;;;4.10;2.20;;;;;;;;;;107852;1251;22529;-78
2023/05/02 09:31:15;;;;;;;3.60;2.20;;;;;;;;;;107776;1248;25268;-79
2023/05/02 09:33:41;;;;;;;4.00;2.90;;;;;;;;;;107815;1251;25358;-81
2023/05/02 09:36:09;;;;;;;6.70;2.30;;;;;;;;;;107826;1251;25390;-79
2023/05/02 09:38:36;;;;;;;7.10;1.90;;;;;;;;;;107667;1253;24269;-79
2023/05/02 09:41:03;;;;;;;4.10;2.10;;;;;;;;;;107961;1253;23312;-78
2023/05/02 09:43:30;;;;;;;2.70;1.90;;;;;;;;;;107902;1248;25466;-79
2023/05/02 09:45:57;;;;;;;3.60;2.10;;;;;;;;;;107712;1248;23041;-78
2023/05/02 09:48:24;;;;;;;4.00;1.90;;;;;;;;;;107929;1251;22732;-77
2023/05/02 09:50:51;;;;;;;4.70;2.40;;;;;;;;;;107778;1251;22505;-77
2023/05/02 09:53:17;;;;;;;3.50;2.40;;;;;;;;;;107705;1251;23103;-81
2023/05/02 09:55:43;;;;;;;3.90;2.40;;;;;;;;;;107717;1251;22556;-79
2023/05/02 09:58:20;;;;;;;4.60;2.10;;;;;;;;;;107750;1251;25218;-80
2023/05/02 10:00:47;;;;;;;3.00;2.10;;;;;;;;;;107792;1251;22537;-79
2023/05/02 10:03:14;;;;;;;4.00;3.00;;;;;;;;;;107726;1252;25214;-79
2023/05/02 10:05:41;;;;;;;5.60;4.20;;;;;;;;;;107737;1252;22522;-79
2023/05/02 10:08:07;;;;;;;6.40;5.00;;;;;;;;;;107691;1249;22928;-77
2023/05/02 10:10:38;;;;;;;4.80;2.70;;;;;;;;;;107887;1251;25378;-77
2023/05/02 10:13:05;;;;;;;5.40;2.50;;;;;;;;;;107723;1251;22733;-77
2023/05/02 10:15:32;;;;;;;4.10;2.40;;;;;;;;;;107829;1253;23311;-78
2023/05/02 10:18:00;;;;;;;4.70;2.90;;;;;;;;;;107673;1253;22987;-79
2023/05/02 10:20:30;;;;;;;6.00;3.00;;;;;;;;;;107735;1251;27661;-79
2023/05/02 10:23:00;;;;;;;5.90;2.70;;;;;;;;;;107683;1251;22584;-77
2023/05/02 10:25:27;;;;;;;3.70;2.60;;;;;;;;;;107939;1247;22544;-79
2023/05/02 10:27:54;;;;;;;5.40;3.30;;;;;;;;;;107749;1252;25353;-78
2023/05/02 10:30:21;;;;;;;8.10;3.40;;;;;;;;;;107699;1251;22531;-79
2023/05/02 10:32:47;;;;;;;4.40;3.20;;;;;;;;;;107616;1254;22950;-77
2023/05/02 10:35:13;;;;;;;3.30;2.60;;;;;;;;;;107811;1251;24983;-77
2023/05/02 10:37:40;;;;;;;9.20;2.70;;;;;;;;;;107617;1251;22526;-78
2023/05/02 10:40:10;;;;;;;9.40;5.00;;;;;;;;;;107722;1249;25317;-77
2023/05/02 10:42:37;;;;;;;7.00;3.60;;;;;;;;;;108079;1251;22640;-79
2023/05/02 10:45:04;;;;;;;5.00;3.70;;;;;;;;;;107740;1251;23239;-77
2023/05/02 10:47:31;;;;;;;3.40;2.80;;;;;;;;;;107590;1251;22661;-79
2023/05/02 10:49:58;;;;;;;4.30;3.80;;;;;;;;;;107675;1248;24879;-77
2023/05/02 10:52:32;;;;;;;11.80;2.80;;;;;;;;;;107606;1250;24375;-78
2023/05/02 10:55:18;;;;;;;4.10;3.30;;;;;;;;;;107698;1251;22520;-79
2023/05/02 10:57:57;;;;;;;4.20;2.70;;;;;;;;;;107696;1248;24219;-79
2023/05/02 11:00:28;;;;;;;4.00;2.40;;;;;;;;;;107670;1251;24425;-79
2023/05/02 11:02:54;;;;;;;15.20;4.60;;;;;;;;;;107840;1248;23538;-79
2023/05/02 11:05:21;;;;;;;5.70;3.70;;;;;;;;;;107562;1253;57526;-79
2023/05/02 11:07:48;;;;;;;5.40;2.30;;;;;;;;;;107601;1251;23586;-79
2023/05/02 11:10:19;;;;;;;4.00;2.10;;;;;;;;;;107742;1253;22521;-79
2023/05/02 11:12:46;;;;;;;4.20;2.60;;;;;;;;;;107714;1250;22537;-78
2023/05/02 11:15:12;;;;;;;3.30;2.20;;;;;;;;;;107625;1248;25309;-78
2023/05/02 11:17:57;;;;;;;9.50;2.80;;;;;;;;;;107764;1248;22518;-79
2023/05/02 11:20:23;;;;;;;5.30;2.80;;;;;;;;;;107763;1251;22578;-78
2023/05/02 11:22:50;;;;;;;3.60;1.90;;;;;;;;;;107858;1250;25342;-78
2023/05/02 11:25:33;;;;;;;4.80;2.70;;;;;;;;;;107838;1253;22532;-78
2023/05/02 11:27:59;;;;;;;4.40;1.90;;;;;;;;;;107789;1251;22688;-79
2023/05/02 11:30:38;;;;;;;3.30;2.30;;;;;;;;;;107898;1251;22540;-79
2023/05/02 11:33:05;;;;;;;4.80;2.40;;;;;;;;;;107793;1253;22704;-79
2023/05/02 11:35:31;;;;;;;3.90;2.40;;;;;;;;;;107646;1248;24190;-78
2023/05/02 11:37:59;;;;;;;5.90;3.00;;;;;;;;;;107663;1249;27476;-77
2023/05/02 11:40:25;;;;;;;4.80;3.00;;;;;;;;;;107791;1251;23310;-77
2023/05/02 11:42:52;;;;;;;5.00;2.60;;;;;;;;;;107880;1251;22569;-77
2023/05/02 11:45:19;;;;;;;4.40;2.90;;;;;;;;;;107916;1251;22505;-77
2023/05/02 11:47:47;;;;;;;6.30;2.80;;;;;;;;;;107910;1251;24223;-79
2023/05/02 11:50:13;;;;;;;6.60;2.20;;;;;;;;;;107650;1251;22553;-79
2023/05/02 11:52:40;;;;;;;6.30;2.60;;;;;;;;;;107797;1251;22538;-79
2023/05/02 11:55:11;;;;;;;6.90;2.60;;;;;;;;;;107896;1248;24129;-79
2023/05/02 11:57:38;;;;;;;5.10;2.60;;;;;;;;;;107784;1250;23926;-79
2023/05/02 12:00:04;;;;;;;19.40;4.20;;;;;;;;;;107796;1249;22529;-77
2023/05/02 12:02:34;;;;;;;3.60;2.40;;;;;;;;;;107789;1250;25412;-79
2023/05/02 12:05:04;;;;;;;4.50;3.00;;;;;;;;;;108178;1250;22514;-79
2023/05/02 12:07:43;;;;;;;5.90;3.00;;;;;;;;;;108487;1251;24241;-77
2023/05/02 12:10:10;;;;;;;3.60;3.00;;;;;;;;;;107874;1251;25178;-79
2023/05/02 12:12:37;;;;;;;7.40;2.40;;;;;;;;;;107778;1251;25255;-79
2023/05/02 12:15:07;;;;;;;5.90;2.80;;;;;;;;;;107949;1250;26595;-79
2023/05/02 12:17:36;;;;;;;3.10;2.80;;;;;;;;;;107901;1251;22543;-77
2023/05/02 12:20:02;;;;;;;;;;;;;;;;;;107862;1250;22553;-77
2023/05/02 12:22:28;;;;;;;5.60;3.20;;;;;;;;;;108000;1247;23925;-79
2023/05/02 12:24:55;;;;;;;14.90;4.40;;;;;;;;;;108715;1247;23907;-79
2023/05/02 12:27:21;;;;;;;8.70;3.50;;;;;;;;;;107780;1251;26462;-79
2023/05/02 12:29:48;;;;;;;7.10;3.80;;;;;;;;;;107886;1251;22643;-78
2023/05/02 12:32:15;;;;;;;6.80;3.50;;;;;;;;;;107834;1250;22516;-79
2023/05/02 12:34:41;;;;;;;5.20;3.80;;;;;;;;;;107854;1251;22537;-78
2023/05/02 12:37:08;;;;;;;7.70;3.60;;;;;;;;;;107898;1250;22528;-77
2023/05/02 12:39:37;;;;;;;4.10;3.10;;;;;;;;;;107888;1250;25473;-79
2023/05/02 12:42:07;;;;;;;4.70;2.50;;;;;;;;;;107797;1251;22565;-77
2023/05/02 12:44:34;;;;;;;7.10;3.60;;;;;;;;;;107787;1251;25203;-78
2023/05/02 12:47:01;;;;;;;14.90;6.20;;;;;;;;;;107829;1249;22573;-78
2023/05/02 12:49:27;;;;;;;12.00;5.30;;;;;;;;;;108206;1248;22558;-80
2023/05/02 12:51:55;;;;;;;18.70;5.90;;;;;;;;;;107843;1249;22697;-78
2023/05/02 12:54:21;;;;;;;13.40;5.20;;;;;;;;;;108579;1252;26441;-79
2023/05/02 12:56:50;;;;;;;9.40;5.00;;;;;;;;;;107964;1250;22579;-79
2023/05/02 12:59:26;;;;;;;12.30;5.30;;;;;;;;;;107844;1251;25259;-80
2023/05/02 13:01:52;;;;;;;11.10;6.10;;;;;;;;;;107728;1251;23980;-80
2023/05/02 13:04:18;;;;;;;8.90;5.70;;;;;;;;;;108129;1250;22555;-80
2023/05/02 13:06:45;;;;;;;10.30;6.70;;;;;;;;;;108069;1251;24697;-78
2023/05/02 13:09:11;;;;;;;13.90;9.10;;;;;;;;;;107941;1249;22513;-79
2023/05/02 13:11:38;;;;;;;10.00;7.20;;;;;;;;;;107952;1248;22594;-80
2023/05/02 13:14:04;;;;;;;15.30;10.20;;;;;;;;;;107915;1251;25262;-80
2023/05/02 13:16:32;;;;;;;9.00;8.00;;;;;;;;;;107924;1250;22752;-79
2023/05/02 13:18:58;;;;;;;14.50;6.40;;;;;;;;;;108772;1249;22579;-80
2023/05/02 13:21:25;;;;;;;13.60;9.00;;;;;;;;;;108175;1248;22525;-80
2023/05/02 13:23:52;;;;;;;19.30;11.80;;;;;;;;;;108208;1248;22564;-79
2023/05/02 13:26:18;;;;;;;9.00;5.20;;;;;;;;;;107857;1248;23253;-80
2023/05/02 13:28:45;;;;;;;5.60;4.70;;;;;;;;;;107805;1249;22510;-80
2023/05/02 13:31:11;;;;;;;6.50;5.70;;;;;;;;;;107966;1250;26607;-80
2023/05/02 13:33:38;;;;;;;8.10;5.30;;;;;;;;;;107818;1250;25405;-78
2023/05/02 13:36:04;;;;;;;8.40;5.20;;;;;;;;;;107817;1250;22544;-80
2023/05/02 13:38:31;;;;;;;6.10;4.40;;;;;;;;;;107808;1251;23292;-79
2023/05/02 13:40:57;;;;;;;7.70;5.40;;;;;;;;;;108359;1248;22593;-81
2023/05/02 13:43:24;;;;;;;8.60;6.60;;;;;;;;;;107527;1248;22524;-78
2023/05/02 13:45:58;;;;;;;7.10;5.50;;;;;;;;;;104702;1290;553330;-78
2023/05/02 13:48:24;;;;;;;10.10;5.30;;;;;;;;;;106921;1263;22596;-77
2023/05/02 13:50:50;;;;;;;12.00;7.50;;;;;;;;;;106897;1263;22588;-81
2023/05/02 13:53:17;;;;;;;9.30;6.10;;;;;;;;;;106893;1264;22526;-77
2023/05/02 13:55:43;;;;;;;10.70;6.00;;;;;;;;;;106918;1263;22794;-77
2023/05/02 13:58:09;;;;;;;9.10;6.60;;;;;;;;;;106863;1264;22530;-81
2023/05/02 14:00:36;;;;;;;11.50;7.40;;;;;;;;;;106882;1260;159314;-77
2023/05/02 14:03:02;;;;;;;8.80;6.60;;;;;;;;;;106991;1264;25297;-77
2023/05/02 14:05:29;;;;;;;8.50;6.60;;;;;;;;;;106764;1260;22973;-81
2023/05/02 14:07:55;;;;;;;6.30;4.80;;;;;;;;;;107044;1260;22529;-81
2023/05/02 14:10:21;;;;;;;7.00;5.30;;;;;;;;;;107009;1260;22544;-77
2023/05/02 14:12:48;;;;;;;9.30;6.60;;;;;;;;;;106989;1260;23087;-77
2023/05/02 14:15:14;;;;;;;10.50;6.90;;;;;;;;;;107062;1260;24205;-80
2023/05/02 14:17:40;;;;;;;17.40;10.20;;;;;;;;;;106831;1261;22573;-78
2023/05/02 14:20:09;;;;;;;18.30;11.20;;;;;;;;;;107003;1264;25480;-77
2023/05/02 14:22:35;;;;;;;18.00;11.00;;;;;;;;;;106978;1260;25274;-77